Time;durP1;ratioP1;P1;durP2;ratioP2;P2;SDS_P1;SDS_P2;PMS_P1;PMS_P2;Temp;Humidity;BMP_temperature;BMP_pressure;BME280_temperature;BME280_humidity;BME280_pressure;Samples;Min_cycle;Max_cycle;Signal;HPM_P1;HPM_P2
2022/04/20 00:01:48;;;;;;;3.15;1.52;;;;;;;;;;5028841;28;20376;-62
2022/04/20 00:04:15;;;;;;;4.53;1.80;;;;;;;;;;5025515;28;20049;-63
2022/04/20 00:06:41;;;;;;;3.03;1.52;;;;;;;;;;5028429;28;20072;-63
2022/04/20 00:09:07;;;;;;;1.98;1.60;;;;;;;;;;5032770;28;20045;-63
2022/04/20 00:11:33;;;;;;;3.20;1.60;;;;;;;;;;5033996;28;20049;-63
2022/04/20 00:13:59;;;;;;;4.05;1.33;;;;;;;;;;5050428;28;20044;-61
2022/04/20 00:16:26;;;;;;;3.15;1.45;;;;;;;;;;5051986;28;20045;-62
2022/04/20 00:18:54;;;;;;;2.47;1.52;;;;;;;;;;5026768;28;20055;-63
2022/04/20 00:21:20;;;;;;;4.25;1.70;;;;;;;;;;5013634;28;20071;-63
2022/04/20 00:23:46;;;;;;;4.57;1.70;;;;;;;;;;5017681;28;20072;-63
2022/04/20 00:26:12;;;;;;;3.22;1.52;;;;;;;;;;5011377;28;20064;-63
2022/04/20 00:28:38;;;;;;;3.55;1.80;;;;;;;;;;4995494;28;20048;-62
2022/04/20 00:31:04;;;;;;;6.10;2.05;;;;;;;;;;5050263;28;20045;-63
2022/04/20 00:33:31;;;;;;;3.28;1.83;;;;;;;;;;5045805;28;20045;-64
2022/04/20 00:35:57;;;;;;;3.97;1.70;;;;;;;;;;5012978;28;20515;-62
2022/04/20 00:38:23;;;;;;;2.85;1.63;;;;;;;;;;5024763;28;20062;-62
2022/04/20 00:40:49;;;;;;;6.60;1.83;;;;;;;;;;4994273;28;20049;-63
2022/04/20 00:43:16;;;;;;;5.07;1.80;;;;;;;;;;5032501;28;20052;-63
2022/04/20 00:45:42;;;;;;;3.38;1.70;;;;;;;;;;5033577;28;20116;-62
2022/04/20 00:48:12;;;;;;;3.28;1.70;;;;;;;;;;5029923;28;20042;-62
2022/04/20 00:50:42;;;;;;;3.17;1.70;;;;;;;;;;5024779;28;20041;-63
2022/04/20 00:53:09;;;;;;;3.25;2.00;;;;;;;;;;5028041;28;20037;-62
2022/04/20 00:55:35;;;;;;;3.88;2.08;;;;;;;;;;5029906;28;20049;-63
2022/04/20 00:58:01;;;;;;;4.65;1.70;;;;;;;;;;5029993;28;20041;-62
2022/04/20 01:00:28;;;;;;;3.75;1.58;;;;;;;;;;5054363;28;20042;-62
2022/04/20 01:02:54;;;;;;;4.60;2.10;;;;;;;;;;5035136;28;20184;-62
2022/04/20 01:05:21;;;;;;;3.17;1.85;;;;;;;;;;5046192;28;20523;-63
2022/04/20 01:07:48;;;;;;;2.53;1.50;;;;;;;;;;5052245;28;20614;-62
2022/04/20 01:10:14;;;;;;;5.38;1.92;;;;;;;;;;5038897;28;20037;-63
2022/04/20 01:12:43;;;;;;;2.67;1.20;;;;;;;;;;5016022;28;20257;-62
2022/04/20 01:15:10;;;;;;;3.38;1.73;;;;;;;;;;5009534;28;20048;-62
2022/04/20 01:17:36;;;;;;;2.00;1.30;;;;;;;;;;5016520;28;20156;-62
2022/04/20 01:20:02;;;;;;;4.07;1.70;;;;;;;;;;5030720;28;20483;-63
2022/04/20 01:22:29;;;;;;;4.15;2.00;;;;;;;;;;5055156;28;20498;-62
2022/04/20 01:24:55;;;;;;;1.98;1.20;;;;;;;;;;5065223;28;20072;-65
2022/04/20 01:27:21;;;;;;;5.40;2.00;;;;;;;;;;5018973;28;20048;-64
2022/04/20 01:29:48;;;;;;;2.97;1.63;;;;;;;;;;5037088;28;20230;-62
2022/04/20 01:32:14;;;;;;;2.00;1.65;;;;;;;;;;5037267;28;20071;-62
2022/04/20 01:34:40;;;;;;;1.70;1.40;;;;;;;;;;5041910;28;20046;-63
2022/04/20 01:37:06;;;;;;;4.35;2.25;;;;;;;;;;5038547;28;20056;-63
2022/04/20 01:39:32;;;;;;;4.20;1.75;;;;;;;;;;5057517;28;20049;-62
2022/04/20 01:41:58;;;;;;;2.92;1.60;;;;;;;;;;5036771;28;20052;-62
2022/04/20 01:44:25;;;;;;;2.78;1.40;;;;;;;;;;5032702;28;20049;-62
2022/04/20 01:46:51;;;;;;;5.78;1.73;;;;;;;;;;5012068;28;20130;-62
2022/04/20 01:49:17;;;;;;;4.32;1.67;;;;;;;;;;5033897;28;20041;-63
2022/04/20 01:51:52;;;;;;;3.42;1.95;;;;;;;;;;5057258;28;20049;-61
2022/04/20 01:54:21;;;;;;;3.25;1.70;;;;;;;;;;5040950;28;20039;-62
2022/04/20 01:56:48;;;;;;;2.75;1.88;;;;;;;;;;5045363;28;20034;-63
2022/04/20 01:59:15;;;;;;;3.60;1.80;;;;;;;;;;5039788;28;20056;-62
2022/04/20 02:04:26;;;;;;;4.22;2.22;;;;;;;;;;5054144;28;20544;-63
2022/04/20 02:06:52;;;;;;;4.32;2.20;;;;;;;;;;5032866;28;20495;-62
2022/04/20 02:09:18;;;;;;;4.32;1.95;;;;;;;;;;5038289;28;20053;-63
2022/04/20 02:11:44;;;;;;;3.75;2.10;;;;;;;;;;5022813;28;20546;-62
2022/04/20 02:14:11;;;;;;;3.80;1.55;;;;;;;;;;5029933;28;20260;-62
2022/04/20 02:16:37;;;;;;;3.75;1.92;;;;;;;;;;5051667;28;20042;-62
2022/04/20 02:19:03;;;;;;;3.45;2.00;;;;;;;;;;5014653;28;20046;-64
2022/04/20 02:21:30;;;;;;;2.17;1.83;;;;;;;;;;5054081;28;20644;-62
2022/04/20 02:23:56;;;;;;;3.15;2.00;;;;;;;;;;5037848;28;20505;-64
2022/04/20 02:26:22;;;;;;;3.88;2.05;;;;;;;;;;5030497;28;20613;-62
2022/04/20 02:28:48;;;;;;;3.88;2.40;;;;;;;;;;5055876;28;20041;-62
2022/04/20 02:31:15;;;;;;;4.00;2.15;;;;;;;;;;5028301;28;20045;-63
2022/04/20 02:33:41;;;;;;;2.70;1.80;;;;;;;;;;5050283;28;20119;-63
2022/04/20 02:36:07;;;;;;;3.50;2.17;;;;;;;;;;5033293;28;20083;-63
2022/04/20 02:38:35;;;;;;;5.50;2.15;;;;;;;;;;5001568;28;20538;-62
2022/04/20 02:41:01;;;;;;;2.80;2.25;;;;;;;;;;5031502;28;20132;-63
2022/04/20 02:43:27;;;;;;;2.63;2.08;;;;;;;;;;5032224;28;20091;-64
2022/04/20 02:45:56;;;;;;;4.25;2.42;;;;;;;;;;5051226;28;20380;-62
2022/04/20 02:48:22;;;;;;;3.85;2.25;;;;;;;;;;5017070;28;20521;-62
2022/04/20 02:50:48;;;;;;;2.95;2.33;;;;;;;;;;5053832;28;20432;-62
2022/04/20 02:53:20;;;;;;;2.55;1.92;;;;;;;;;;5014261;28;20040;-62
2022/04/20 02:55:46;;;;;;;4.00;2.22;;;;;;;;;;5018736;28;20369;-62
2022/04/20 02:58:13;;;;;;;4.85;2.35;;;;;;;;;;5035296;28;20051;-63
2022/04/20 03:00:39;;;;;;;5.60;2.58;;;;;;;;;;5011150;28;20121;-62
2022/04/20 03:03:05;;;;;;;4.07;2.63;;;;;;;;;;5033261;28;20076;-62
2022/04/20 03:05:31;;;;;;;5.13;2.40;;;;;;;;;;5048843;28;20045;-61
2022/04/20 03:07:57;;;;;;;3.72;2.05;;;;;;;;;;5034794;28;20034;-63
2022/04/20 03:10:23;;;;;;;4.70;2.42;;;;;;;;;;5033887;28;20537;-62
2022/04/20 03:12:50;;;;;;;2.72;1.83;;;;;;;;;;5036857;28;20483;-61
2022/04/20 03:15:16;;;;;;;3.47;2.35;;;;;;;;;;5036918;28;20076;-61
2022/04/20 03:17:43;;;;;;;4.07;2.47;;;;;;;;;;5033626;28;20049;-61
2022/04/20 03:20:10;;;;;;;3.95;2.20;;;;;;;;;;5017517;28;20041;-61
2022/04/20 03:22:36;;;;;;;3.38;2.53;;;;;;;;;;5031947;28;20144;-61
2022/04/20 03:25:03;;;;;;;3.72;2.17;;;;;;;;;;5035690;28;20049;-61
2022/04/20 03:27:29;;;;;;;3.22;2.45;;;;;;;;;;5058245;28;20076;-62
2022/04/20 03:29:55;;;;;;;4.13;2.47;;;;;;;;;;5033232;28;20495;-61
2022/04/20 03:32:22;;;;;;;4.93;2.50;;;;;;;;;;5035394;28;20458;-60
2022/04/20 03:34:48;;;;;;;4.10;2.05;;;;;;;;;;5060136;28;20457;-61
2022/04/20 03:37:14;;;;;;;5.38;2.70;;;;;;;;;;5031992;28;20085;-61
2022/04/20 03:39:41;;;;;;;5.63;2.30;;;;;;;;;;5031388;28;20057;-60
2022/04/20 03:42:08;;;;;;;4.22;2.00;;;;;;;;;;5037108;28;20077;-62
2022/04/20 03:44:35;;;;;;;4.05;2.25;;;;;;;;;;5035007;28;20148;-62
2022/04/20 03:47:01;;;;;;;3.92;2.33;;;;;;;;;;5036577;28;20080;-62
2022/04/20 03:49:27;;;;;;;3.10;2.20;;;;;;;;;;5034583;28;20534;-63
2022/04/20 03:51:53;;;;;;;4.50;2.63;;;;;;;;;;5017536;28;20493;-64
2022/04/20 03:54:20;;;;;;;6.18;2.50;;;;;;;;;;5068295;28;20462;-64
2022/04/20 03:57:04;;;;;;;6.45;3.05;;;;;;;;;;5026964;28;20099;-62
2022/04/20 03:59:31;;;;;;;3.20;2.35;;;;;;;;;;5032011;28;20039;-63
2022/04/20 04:01:57;;;;;;;4.32;2.92;;;;;;;;;;5018591;28;20412;-61
2022/04/20 04:04:23;;;;;;;3.95;2.30;;;;;;;;;;5030494;28;20033;-63
2022/04/20 04:06:49;;;;;;;4.45;2.63;;;;;;;;;;4996824;28;20065;-63
2022/04/20 04:09:15;;;;;;;4.47;2.55;;;;;;;;;;5029275;28;20045;-61
2022/04/20 04:11:42;;;;;;;5.30;2.72;;;;;;;;;;5053180;28;20072;-63
2022/04/20 04:14:08;;;;;;;4.57;2.83;;;;;;;;;;5026636;28;20052;-63
2022/04/20 04:16:36;;;;;;;5.03;2.90;;;;;;;;;;5034143;28;20046;-62
2022/04/20 04:19:09;;;;;;;4.95;2.58;;;;;;;;;;5012691;28;20076;-64
2022/04/20 04:21:36;;;;;;;3.83;3.10;;;;;;;;;;5051195;28;20038;-63
2022/04/20 04:24:03;;;;;;;3.47;3.10;;;;;;;;;;5027047;28;20040;-63
2022/04/20 04:26:30;;;;;;;3.17;2.80;;;;;;;;;;5050510;28;20492;-62
2022/04/20 04:28:57;;;;;;;5.45;3.55;;;;;;;;;;5028113;28;20073;-63
2022/04/20 04:31:24;;;;;;;3.75;2.53;;;;;;;;;;5013796;28;20072;-60
2022/04/20 04:33:50;;;;;;;5.88;2.95;;;;;;;;;;5035582;28;20042;-61
2022/04/20 04:36:16;;;;;;;6.38;3.00;;;;;;;;;;5058466;28;20136;-60
2022/04/20 04:38:42;;;;;;;4.32;2.40;;;;;;;;;;5036140;28;20075;-61
2022/04/20 04:41:08;;;;;;;4.72;3.13;;;;;;;;;;5037456;28;20040;-60
2022/04/20 04:43:34;;;;;;;3.10;2.78;;;;;;;;;;5059114;28;20045;-61
2022/04/20 04:48:48;;;;;;;5.93;3.33;;;;;;;;;;5032184;28;20410;-63
2022/04/20 04:51:14;;;;;;;4.93;3.20;;;;;;;;;;5041240;28;20040;-62
2022/04/20 04:53:41;;;;;;;6.20;3.83;;;;;;;;;;5042320;28;20503;-62
2022/04/20 04:56:07;;;;;;;5.35;3.38;;;;;;;;;;5026453;28;20150;-61
2022/04/20 04:58:33;;;;;;;5.18;3.00;;;;;;;;;;5038338;28;20049;-63
2022/04/20 05:01:02;;;;;;;5.05;3.20;;;;;;;;;;5042339;28;20068;-64
2022/04/20 05:03:28;;;;;;;5.32;3.47;;;;;;;;;;5057506;28;20034;-63
2022/04/20 05:05:54;;;;;;;4.50;3.40;;;;;;;;;;5061958;28;20368;-61
2022/04/20 05:08:20;;;;;;;7.55;3.72;;;;;;;;;;5039486;28;20041;-61
2022/04/20 05:10:46;;;;;;;5.25;3.80;;;;;;;;;;5036376;28;20037;-62
2022/04/20 05:13:13;;;;;;;4.38;3.45;;;;;;;;;;5037269;28;20045;-63
2022/04/20 05:15:39;;;;;;;5.18;3.47;;;;;;;;;;5036010;28;20048;-62
2022/04/20 05:18:05;;;;;;;6.00;3.45;;;;;;;;;;5042541;28;20040;-63
2022/04/20 05:20:31;;;;;;;6.07;3.47;;;;;;;;;;5072390;28;20103;-62
2022/04/20 05:22:57;;;;;;;4.57;3.00;;;;;;;;;;5035406;28;20516;-63
2022/04/20 05:25:24;;;;;;;3.83;2.83;;;;;;;;;;5035857;28;20514;-61
2022/04/20 05:27:51;;;;;;;5.63;3.50;;;;;;;;;;5030025;28;20126;-62
2022/04/20 05:30:17;;;;;;;4.25;2.85;;;;;;;;;;5045364;28;20167;-63
2022/04/20 05:32:43;;;;;;;5.88;3.25;;;;;;;;;;5035244;28;20128;-61
2022/04/20 05:35:10;;;;;;;3.45;3.10;;;;;;;;;;5037359;28;20053;-63
2022/04/20 05:43:06;;;;;;;4.18;2.92;;;;;;;;;;5034502;28;20989;-62
2022/04/20 05:45:32;;;;;;;6.78;3.22;;;;;;;;;;5036718;28;20041;-62
2022/04/20 05:47:58;;;;;;;3.65;2.83;;;;;;;;;;5033416;28;20164;-62
2022/04/20 05:50:25;;;;;;;4.80;2.67;;;;;;;;;;5030337;28;20072;-62
2022/04/20 05:52:51;;;;;;;3.72;2.63;;;;;;;;;;5032724;28;20731;-62
2022/04/20 05:55:17;;;;;;;3.90;2.85;;;;;;;;;;5014048;28;20037;-64
2022/04/20 05:57:47;;;;;;;7.00;2.90;;;;;;;;;;5032259;28;20033;-62
2022/04/20 06:00:13;;;;;;;4.20;2.53;;;;;;;;;;5031782;28;20045;-62
2022/04/20 06:02:39;;;;;;;2.55;2.05;;;;;;;;;;5030739;28;20121;-63
2022/04/20 06:05:06;;;;;;;3.22;2.20;;;;;;;;;;5029799;28;20041;-62
2022/04/20 06:07:33;;;;;;;2.72;2.50;;;;;;;;;;5028907;28;20559;-63
2022/04/20 06:09:59;;;;;;;6.32;2.42;;;;;;;;;;5030491;28;20033;-64
2022/04/20 06:12:25;;;;;;;3.55;2.20;;;;;;;;;;5030140;28;20088;-62
2022/04/20 06:14:51;;;;;;;3.95;2.47;;;;;;;;;;5049675;28;20052;-62
2022/04/20 06:17:17;;;;;;;6.47;2.60;;;;;;;;;;5021050;28;20517;-63
2022/04/20 06:19:43;;;;;;;4.10;2.25;;;;;;;;;;5042537;28;20057;-63
2022/04/20 06:22:09;;;;;;;5.75;2.47;;;;;;;;;;5047347;28;20040;-62
2022/04/20 06:24:35;;;;;;;5.32;2.33;;;;;;;;;;5042112;28;20048;-62
2022/04/20 06:27:02;;;;;;;4.47;2.50;;;;;;;;;;5030604;28;20046;-62
2022/04/20 06:29:28;;;;;;;3.72;2.40;;;;;;;;;;5049474;28;20041;-63
2022/04/20 06:31:54;;;;;;;4.65;2.20;;;;;;;;;;5040744;28;20403;-62
2022/04/20 06:34:20;;;;;;;3.80;2.28;;;;;;;;;;5049769;28;20398;-62
2022/04/20 06:36:46;;;;;;;4.68;2.80;;;;;;;;;;5045569;28;20057;-61
2022/04/20 06:39:13;;;;;;;5.35;2.80;;;;;;;;;;5032636;28;20133;-62
2022/04/20 06:41:39;;;;;;;3.60;2.70;;;;;;;;;;5030771;28;20081;-62
2022/04/20 06:44:05;;;;;;;3.85;2.30;;;;;;;;;;5013032;28;20566;-63
2022/04/20 06:46:31;;;;;;;3.42;2.35;;;;;;;;;;5030766;28;20124;-62
2022/04/20 06:48:57;;;;;;;3.65;2.13;;;;;;;;;;5063051;28;20045;-63
2022/04/20 06:51:23;;;;;;;4.47;2.70;;;;;;;;;;5030446;28;20064;-63
2022/04/20 06:59:20;;;;;;;6.82;2.63;;;;;;;;;;5032017;28;20053;-61
2022/04/20 07:01:47;;;;;;;2.83;2.17;;;;;;;;;;5063765;28;20487;-62
2022/04/20 07:04:13;;;;;;;6.18;2.25;;;;;;;;;;5064115;28;20056;-62
2022/04/20 07:06:40;;;;;;;4.53;2.75;;;;;;;;;;5063496;28;20076;-62
2022/04/20 07:09:06;;;;;;;3.88;2.40;;;;;;;;;;5031499;28;20087;-62
2022/04/20 07:11:32;;;;;;;3.63;2.50;;;;;;;;;;5062053;28;20570;-62
2022/04/20 07:13:58;;;;;;;3.35;2.00;;;;;;;;;;5057696;28;20498;-63
2022/04/20 07:16:24;;;;;;;2.85;2.10;;;;;;;;;;5063115;28;20049;-63
2022/04/20 07:18:51;;;;;;;2.83;1.73;;;;;;;;;;5042422;28;20045;-63
2022/04/20 07:21:17;;;;;;;3.38;2.03;;;;;;;;;;5012712;28;20129;-63
2022/04/20 07:23:43;;;;;;;3.10;1.77;;;;;;;;;;5035454;28;20077;-62
2022/04/20 07:26:10;;;;;;;4.40;1.65;;;;;;;;;;5053103;28;20490;-63
2022/04/20 07:28:36;;;;;;;3.38;1.58;;;;;;;;;;5028438;28;20045;-63
2022/04/20 07:31:04;;;;;;;2.72;1.48;;;;;;;;;;5029286;28;20052;-63
2022/04/20 07:33:30;;;;;;;2.72;1.40;;;;;;;;;;5060084;28;20483;-62
2022/04/20 07:35:57;;;;;;;2.25;1.35;;;;;;;;;;5061367;28;20087;-62
2022/04/20 07:38:25;;;;;;;3.75;1.30;;;;;;;;;;5061602;28;20088;-63
2022/04/20 07:40:52;;;;;;;2.00;1.33;;;;;;;;;;5030904;28;20139;-62
2022/04/20 07:43:18;;;;;;;4.03;1.77;;;;;;;;;;5029686;28;20048;-63
2022/04/20 07:45:44;;;;;;;2.33;1.20;;;;;;;;;;5060817;28;20045;-63
2022/04/20 07:48:11;;;;;;;2.20;1.10;;;;;;;;;;5061134;28;20091;-62
2022/04/20 07:50:38;;;;;;;3.22;1.20;;;;;;;;;;5032250;28;20391;-62
2022/04/20 07:53:05;;;;;;;3.30;1.20;;;;;;;;;;5032996;28;20033;-62
2022/04/20 07:55:32;;;;;;;2.92;1.33;;;;;;;;;;5064356;28;20155;-62
2022/04/20 07:57:59;;;;;;;1.83;1.00;;;;;;;;;;5032231;28;20045;-62
2022/04/20 08:00:26;;;;;;;2.35;1.27;;;;;;;;;;5061310;28;20037;-62
2022/04/20 08:03:07;;;;;;;10.77;1.23;;;;;;;;;;5028970;28;20144;-62
2022/04/20 08:05:33;;;;;;;2.17;1.15;;;;;;;;;;5028885;28;20171;-63
2022/04/20 08:07:59;;;;;;;2.10;1.10;;;;;;;;;;5026749;28;20041;-62
2022/04/20 08:10:25;;;;;;;1.70;0.75;;;;;;;;;;5035722;28;20453;-64
2022/04/20 08:12:51;;;;;;;1.42;0.80;;;;;;;;;;5037233;28;20037;-64
2022/04/20 08:15:17;;;;;;;1.70;0.70;;;;;;;;;;5034900;28;20099;-64
2022/04/20 08:17:44;;;;;;;1.95;0.63;;;;;;;;;;5036527;28;20151;-63
2022/04/20 08:20:11;;;;;;;3.05;0.93;;;;;;;;;;5037608;28;20045;-63
2022/04/20 08:22:41;;;;;;;2.53;0.80;;;;;;;;;;5037280;28;20049;-63
2022/04/20 08:25:08;;;;;;;3.03;0.95;;;;;;;;;;5057153;28;20144;-61
2022/04/20 08:27:34;;;;;;;1.75;0.52;;;;;;;;;;5036415;28;20375;-63
2022/04/20 08:30:00;;;;;;;3.80;0.82;;;;;;;;;;5034885;28;20545;-63
2022/04/20 08:32:26;;;;;;;1.65;0.65;;;;;;;;;;5015862;28;20052;-64
2022/04/20 08:34:53;;;;;;;3.40;0.63;;;;;;;;;;5035183;28;20132;-63
2022/04/20 08:37:19;;;;;;;3.17;0.57;;;;;;;;;;5031014;28;20053;-63
2022/04/20 08:39:45;;;;;;;1.52;0.57;;;;;;;;;;5027773;28;20060;-63
2022/04/20 08:42:12;;;;;;;3.15;0.50;;;;;;;;;;5043619;28;20049;-62
2022/04/20 08:44:42;;;;;;;1.33;0.40;;;;;;;;;;5028242;28;20281;-63
2022/04/20 08:47:12;;;;;;;4.20;0.60;;;;;;;;;;5043485;28;20038;-63
2022/04/20 08:49:41;;;;;;;2.20;0.60;;;;;;;;;;5028838;28;20045;-63
2022/04/20 08:54:54;;;;;;;1.50;0.55;;;;;;;;;;5028078;28;20045;-63
2022/04/20 08:57:21;;;;;;;2.05;0.60;;;;;;;;;;5032281;28;20503;-64
2022/04/20 08:59:54;;;;;;;1.75;0.77;;;;;;;;;;5040527;28;21041;-62
2022/04/20 09:02:22;;;;;;;1.08;0.50;;;;;;;;;;5055787;28;20056;-62
2022/04/20 09:04:49;;;;;;;1.10;0.40;;;;;;;;;;5010254;28;20049;-62
2022/04/20 09:07:15;;;;;;;3.10;0.50;;;;;;;;;;5057018;28;20120;-63
2022/04/20 09:09:41;;;;;;;2.67;0.60;;;;;;;;;;5011146;28;20083;-63
2022/04/20 09:12:11;;;;;;;1.67;0.60;;;;;;;;;;5028531;28;20280;-62
2022/04/20 09:14:38;;;;;;;1.40;0.50;;;;;;;;;;5028439;28;20452;-63
2022/04/20 09:17:04;;;;;;;1.30;0.45;;;;;;;;;;5027556;28;20109;-64
2022/04/20 09:19:30;;;;;;;2.10;0.40;;;;;;;;;;5052462;28;20037;-63
2022/04/20 09:21:57;;;;;;;3.42;0.63;;;;;;;;;;5028397;28;20036;-63
2022/04/20 09:24:23;;;;;;;1.50;0.50;;;;;;;;;;5025289;28;20041;-63
2022/04/20 09:26:57;;;;;;;1.40;0.52;;;;;;;;;;5028479;28;20037;-62
2022/04/20 09:29:23;;;;;;;5.82;0.68;;;;;;;;;;5024632;28;20083;-63
2022/04/20 09:31:51;;;;;;;2.25;0.50;;;;;;;;;;5033410;28;20471;-63
2022/04/20 09:34:26;;;;;;;1.90;0.73;;;;;;;;;;5030036;28;20072;-65
2022/04/20 09:36:54;;;;;;;2.67;0.50;;;;;;;;;;5054382;28;20440;-64
2022/04/20 09:39:21;;;;;;;14.60;0.80;;;;;;;;;;5018445;28;20161;-63
2022/04/20 09:42:00;;;;;;;6.70;0.45;;;;;;;;;;5030527;28;20521;-64
2022/04/20 09:44:27;;;;;;;2.08;0.30;;;;;;;;;;5033789;28;20120;-63
2022/04/20 09:50:01;;;;;;;1.80;0.20;;;;;;;;;;5034430;28;20040;-63
2022/04/20 09:52:37;;;;;;;1.80;0.20;;;;;;;;;;5035541;28;20049;-65
2022/04/20 09:55:05;;;;;;;1.08;0.30;;;;;;;;;;5033737;28;20045;-63
2022/04/20 09:57:31;;;;;;;1.40;0.30;;;;;;;;;;5020804;28;20041;-64
2022/04/20 10:00:15;;;;;;;1.20;0.20;;;;;;;;;;5016275;28;20052;-62
2022/04/20 10:02:47;;;;;;;0.90;0.30;;;;;;;;;;5034795;28;20041;-64
2022/04/20 10:05:14;;;;;;;1.23;0.28;;;;;;;;;;5034878;28;20049;-63
2022/04/20 10:07:40;;;;;;;0.68;0.30;;;;;;;;;;5031315;28;20135;-63
2022/04/20 10:10:07;;;;;;;0.77;0.30;;;;;;;;;;5035891;28;20509;-63
2022/04/20 10:12:36;;;;;;;0.90;0.20;;;;;;;;;;5031364;28;20037;-62
2022/04/20 10:17:50;;;;;;;1.10;0.30;;;;;;;;;;5041495;28;20052;-63
2022/04/20 10:20:17;;;;;;;0.82;0.20;;;;;;;;;;5062242;28;20037;-63
2022/04/20 10:22:44;;;;;;;1.67;0.40;;;;;;;;;;5041267;28;21291;-62
2022/04/20 10:25:11;;;;;;;1.33;0.40;;;;;;;;;;5037478;28;20091;-62
2022/04/20 10:27:46;;;;;;;1.52;0.40;;;;;;;;;;5062240;28;20479;-64
2022/04/20 10:30:17;;;;;;;1.42;0.30;;;;;;;;;;5036802;28;20061;-68
2022/04/20 10:32:51;;;;;;;2.40;0.30;;;;;;;;;;5033329;28;20064;-63
2022/04/20 10:35:17;;;;;;;0.80;0.30;;;;;;;;;;5028445;28;20045;-66
2022/04/20 10:38:03;;;;;;;0.73;0.20;;;;;;;;;;5027294;28;20057;-64
2022/04/20 10:40:29;;;;;;;1.95;0.40;;;;;;;;;;5028168;28;20049;-64
2022/04/20 10:43:14;;;;;;;1.30;0.30;;;;;;;;;;5029721;28;20381;-64
2022/04/20 10:46:00;;;;;;;0.60;0.20;;;;;;;;;;5027999;28;20435;-63
2022/04/20 10:48:26;;;;;;;1.17;0.20;;;;;;;;;;5029389;28;20061;-62
2022/04/20 10:51:11;;;;;;;1.08;0.30;;;;;;;;;;5028320;28;20444;-63
2022/04/20 10:53:37;;;;;;;0.77;0.25;;;;;;;;;;5029643;28;20465;-62
2022/04/20 10:56:03;;;;;;;1.05;0.20;;;;;;;;;;5029306;28;20120;-63
2022/04/20 10:58:29;;;;;;;1.50;0.30;;;;;;;;;;5029550;28;20042;-63
2022/04/20 11:01:09;;;;;;;1.48;0.30;;;;;;;;;;5029333;28;20674;-63
2022/04/20 11:04:06;;;;;;;0.60;0.20;;;;;;;;;;5058856;28;20047;-63
2022/04/20 11:06:52;;;;;;;4.07;0.20;;;;;;;;;;5027926;28;20163;-63
2022/04/20 11:09:37;;;;;;;0.80;0.20;;;;;;;;;;5028258;28;20052;-63
2022/04/20 11:20:58;;;;;;;1.10;0.10;;;;;;;;;;5026771;28;20106;-63
2022/04/20 11:23:44;;;;;;;2.92;0.20;;;;;;;;;;5059684;28;20476;-64
2022/04/20 11:26:14;;;;;;;2.25;0.20;;;;;;;;;;5038406;28;20095;-62
2022/04/20 11:28:41;;;;;;;0.40;0.10;;;;;;;;;;5028633;28;20044;-63
2022/04/20 11:31:07;;;;;;;1.48;0.20;;;;;;;;;;5027335;28;20063;-63
2022/04/20 11:33:34;;;;;;;1.75;0.20;;;;;;;;;;5028982;28;20041;-64
2022/04/20 11:36:00;;;;;;;0.70;0.30;;;;;;;;;;5055433;28;20048;-63
2022/04/20 11:38:36;;;;;;;1.30;0.20;;;;;;;;;;5040500;28;20045;-63
2022/04/20 11:41:02;;;;;;;1.85;0.30;;;;;;;;;;5027400;28;20085;-62
2022/04/20 11:43:28;;;;;;;0.88;0.20;;;;;;;;;;5027093;28;20574;-64
2022/04/20 11:45:54;;;;;;;2.45;0.50;;;;;;;;;;5026967;28;20088;-63
2022/04/20 11:48:20;;;;;;;2.20;0.30;;;;;;;;;;5056169;28;20037;-64
2022/04/20 11:51:00;;;;;;;2.08;0.45;;;;;;;;;;5028276;28;20033;-64
2022/04/20 11:53:38;;;;;;;1.85;0.20;;;;;;;;;;5045094;28;20065;-62
2022/04/20 11:56:07;;;;;;;0.60;0.20;;;;;;;;;;5026626;28;20395;-64
2022/04/20 11:58:33;;;;;;;0.82;0.20;;;;;;;;;;5024794;28;20117;-63
2022/04/20 12:01:04;;;;;;;0.82;0.28;;;;;;;;;;5026880;28;20754;-64
2022/04/20 12:03:31;;;;;;;1.60;0.32;;;;;;;;;;5026540;28;20059;-62
2022/04/20 12:06:04;;;;;;;0.90;0.20;;;;;;;;;;5028490;28;20060;-62
2022/04/20 12:08:34;;;;;;;1.70;0.55;;;;;;;;;;5028355;28;20033;-62
2022/04/20 12:11:08;;;;;;;1.02;0.30;;;;;;;;;;5026996;28;20182;-63
2022/04/20 12:13:35;;;;;;;3.20;0.80;;;;;;;;;;5026773;28;20033;-63
2022/04/20 12:16:08;;;;;;;0.85;0.20;;;;;;;;;;5026474;28;20128;-63
2022/04/20 12:18:38;;;;;;;1.45;0.22;;;;;;;;;;5010184;28;20037;-62
2022/04/20 12:21:07;;;;;;;1.35;0.30;;;;;;;;;;5028245;28;20092;-63
2022/04/20 12:23:34;;;;;;;2.15;0.40;;;;;;;;;;5048692;28;20707;-63
2022/04/20 12:26:03;;;;;;;0.65;0.45;;;;;;;;;;5026713;28;20092;-64
2022/04/20 12:28:43;;;;;;;2.35;0.47;;;;;;;;;;5022724;28;20046;-63
2022/04/20 12:31:10;;;;;;;1.00;0.50;;;;;;;;;;5026987;28;20103;-64
2022/04/20 12:33:41;;;;;;;2.45;0.60;;;;;;;;;;5046891;28;20033;-63
2022/04/20 12:36:11;;;;;;;2.40;0.68;;;;;;;;;;5026404;28;20092;-63
2022/04/20 12:38:46;;;;;;;1.95;0.60;;;;;;;;;;5026430;28;20423;-63
2022/04/20 12:41:31;;;;;;;2.10;0.65;;;;;;;;;;5017043;28;20056;-63
2022/04/20 12:43:59;;;;;;;3.35;0.90;;;;;;;;;;5034938;28;20060;-63
2022/04/20 12:46:33;;;;;;;2.03;0.73;;;;;;;;;;5026447;28;20077;-63
2022/04/20 12:48:59;;;;;;;4.65;0.60;;;;;;;;;;5026434;28;20486;-63
2022/04/20 12:51:25;;;;;;;2.40;1.00;;;;;;;;;;5027891;28;20084;-63
2022/04/20 12:53:51;;;;;;;1.35;0.90;;;;;;;;;;5046462;28;20099;-63
2022/04/20 13:02:02;;;;;;;1.63;0.73;;;;;;;;;;5026154;28;20033;-62
2022/04/20 13:04:28;;;;;;;1.17;0.80;;;;;;;;;;5028270;28;20455;-62
2022/04/20 13:06:55;;;;;;;2.58;1.02;;;;;;;;;;5041679;28;20057;-64
2022/04/20 13:09:21;;;;;;;1.95;1.05;;;;;;;;;;5027709;28;20103;-63
2022/04/20 13:11:47;;;;;;;3.63;1.42;;;;;;;;;;5030557;28;20068;-64
2022/04/20 13:14:14;;;;;;;3.67;1.25;;;;;;;;;;5046110;28;20049;-63
2022/04/20 13:16:40;;;;;;;1.98;1.33;;;;;;;;;;5030123;28;20222;-62
2022/04/20 13:19:06;;;;;;;3.08;1.30;;;;;;;;;;5029505;28;20049;-63
2022/04/20 13:21:32;;;;;;;3.38;1.90;;;;;;;;;;5054112;28;20468;-62
2022/04/20 13:23:58;;;;;;;3.92;1.60;;;;;;;;;;5037164;28;20407;-64
2022/04/20 13:29:14;;;;;;;1.77;1.40;;;;;;;;;;5031047;28;20046;-63
2022/04/20 13:31:40;;;;;;;2.63;1.92;;;;;;;;;;5029729;28;20068;-63
2022/04/20 13:34:06;;;;;;;3.28;2.10;;;;;;;;;;5013197;28;20388;-64
2022/04/20 13:36:32;;;;;;;5.13;2.30;;;;;;;;;;5029872;28;20076;-63
2022/04/20 13:38:58;;;;;;;4.25;2.38;;;;;;;;;;5029402;28;20412;-63
2022/04/20 13:41:25;;;;;;;3.28;2.30;;;;;;;;;;5040658;28;20407;-63
2022/04/20 13:43:51;;;;;;;4.25;2.60;;;;;;;;;;5030490;28;20045;-62
2022/04/20 13:46:17;;;;;;;3.00;2.50;;;;;;;;;;5029240;28;20133;-63
2022/04/20 13:48:43;;;;;;;3.30;2.63;;;;;;;;;;5040674;28;20127;-62
2022/04/20 13:51:09;;;;;;;3.55;2.97;;;;;;;;;;5029563;28;20080;-64
2022/04/20 13:53:35;;;;;;;4.38;2.85;;;;;;;;;;5030464;28;20441;-62
2022/04/20 13:56:01;;;;;;;4.10;3.50;;;;;;;;;;5030461;28;20033;-63
2022/04/20 13:58:28;;;;;;;5.03;3.28;;;;;;;;;;5033966;28;20045;-62
2022/04/20 14:00:55;;;;;;;3.90;3.20;;;;;;;;;;5030359;28;20044;-63
2022/04/20 14:03:21;;;;;;;5.55;3.70;;;;;;;;;;5030683;28;20064;-63
2022/04/20 14:05:47;;;;;;;6.20;3.60;;;;;;;;;;5028756;28;20041;-63
2022/04/20 14:08:13;;;;;;;3.72;3.03;;;;;;;;;;5029059;28;20037;-63
2022/04/20 14:10:39;;;;;;;3.75;3.45;;;;;;;;;;5012537;28;20045;-62
2022/04/20 14:13:06;;;;;;;4.40;3.38;;;;;;;;;;5046861;28;20038;-64
2022/04/20 14:15:32;;;;;;;5.47;3.53;;;;;;;;;;4995885;28;20120;-62
2022/04/20 14:17:58;;;;;;;5.07;3.10;;;;;;;;;;5055738;28;20132;-63
2022/04/20 14:20:26;;;;;;;3.97;3.20;;;;;;;;;;5054236;28;20049;-63
2022/04/20 14:22:52;;;;;;;4.70;3.15;;;;;;;;;;5029179;28;20041;-64
2022/04/20 14:33:32;;;;;;;3.88;3.50;;;;;;;;;;5024933;28;20336;-63
2022/04/20 14:35:59;;;;;;;5.55;3.60;;;;;;;;;;5029812;28;20037;-63
2022/04/20 14:38:25;;;;;;;3.95;3.30;;;;;;;;;;5057719;28;20093;-64
2022/04/20 14:40:51;;;;;;;4.88;3.90;;;;;;;;;;5025759;28;20102;-64
2022/04/20 14:43:18;;;;;;;5.43;3.90;;;;;;;;;;5028753;28;20053;-64
2022/04/20 14:45:45;;;;;;;6.25;3.72;;;;;;;;;;5029320;28;20048;-65
2022/04/20 14:48:11;;;;;;;6.25;4.00;;;;;;;;;;5029080;28;20116;-64
2022/04/20 14:50:39;;;;;;;5.25;3.78;;;;;;;;;;5029619;28;20467;-63
2022/04/20 14:53:05;;;;;;;4.32;3.70;;;;;;;;;;5057997;28;20045;-62
2022/04/20 14:55:31;;;;;;;4.57;3.53;;;;;;;;;;5011007;28;20050;-62
2022/04/20 14:57:58;;;;;;;4.60;4.13;;;;;;;;;;5042832;28;20084;-63
2022/04/20 15:00:24;;;;;;;4.32;3.92;;;;;;;;;;5009225;28;20096;-63
2022/04/20 15:02:50;;;;;;;3.88;3.58;;;;;;;;;;5020770;28;20046;-63
2022/04/20 15:05:17;;;;;;;3.97;2.95;;;;;;;;;;5020810;28;20100;-63
2022/04/20 15:07:44;;;;;;;5.07;3.58;;;;;;;;;;5054014;28;20037;-64
2022/04/20 15:10:11;;;;;;;4.30;3.38;;;;;;;;;;5052220;28;20411;-63
2022/04/20 15:12:39;;;;;;;3.17;2.83;;;;;;;;;;5055295;28;20091;-63
2022/04/20 15:15:06;;;;;;;4.70;3.17;;;;;;;;;;5028026;28;20053;-63
2022/04/20 15:17:33;;;;;;;3.72;3.17;;;;;;;;;;5019383;28;20037;-63
2022/04/20 15:19:59;;;;;;;3.88;3.15;;;;;;;;;;5009931;28;20411;-63
2022/04/20 15:22:26;;;;;;;4.30;3.03;;;;;;;;;;5027676;28;20038;-63
2022/04/20 15:24:52;;;;;;;5.10;3.30;;;;;;;;;;5010923;28;20045;-63
2022/04/20 15:27:18;;;;;;;4.88;3.60;;;;;;;;;;5028973;28;20038;-63
2022/04/20 15:29:45;;;;;;;3.92;2.60;;;;;;;;;;5030684;28;20040;-63
2022/04/20 15:32:11;;;;;;;3.83;3.17;;;;;;;;;;5027932;28;20047;-63
2022/04/20 15:34:38;;;;;;;3.70;3.00;;;;;;;;;;5052743;28;20060;-64
2022/04/20 15:37:05;;;;;;;3.53;3.17;;;;;;;;;;5027167;28;20049;-64